• Join FlightAware (Why Join?)
  • Login
  • US Flag 
02:16PM EDT


 

Airport Tracker/Info


-or-


 

Live Flight TrackerFlight Track Log ✈ QLK377D ✈ 18-Jun-2013 ✈ YHBA / HVB - YBBN / BNE

Flight Track Log - Related Links

Times and Time Zones

All times are in EDT time to prevent confusion due to time zone crossing. See the QLK377D flight status page for this flight to view local times or setup timezone preferences in your user account.

Time Position Orientation Groundspeed Altitude Reporting Facility
EDT Latitude Longitude Course Direction KTS MPH feet Rate Location/Type
10:21PM -25.3690 152.8378 217° Southwest 11,000  Level Aus ATC (Calculated)
10:22PM -25.3690 152.8378 217° Southwest 11,000 -2,820 Level Aus ATC (Calculated)
10:23PM -25.4081 152.8048 218° Southwest 222 255 6,800 -1,020 Descending Aus ATC (RADAR)
10:24PM -25.4653 152.7555 218° Southwest 238 274 9,300 2,220 Climbing Aus ATC (RADAR)
10:25PM -25.5028 152.7241 217° Southwest 250 288 10,700 1,920 Climbing Aus ATC (RADAR)
10:26PM -25.5763 152.7090 191° South 290 334 12,500 1,800 Climbing Aus ATC (RADAR)
10:27PM -25.6819 152.7173 176° South 288 331 15,000 1,500 Climbing Aus ATC (RADAR)
10:27PM -25.7091 152.7188 177° South 292 336 15,000  Level Aus ATC (RADAR)
10:28PM -25.7563 152.7195 179° South 290 334 15,000  Level Aus ATC (RADAR)
10:29PM -25.8321 152.7212 179° South 269 310 15,000  Level Aus ATC (RADAR)
10:30PM -25.8735 152.7229 178° South 258 297 15,000  Level Aus ATC (RADAR)
10:31PM -25.9481 152.7259 178° South 245 282 15,000  Level Aus ATC (RADAR)
10:33PM -26.0762 152.7322 177° South 242 278 15,000  Level Aus ATC (RADAR)
10:33PM -26.0931 152.7342 174° South 243 280 15,000  Level Aus ATC (RADAR)
10:33PM -26.1380 152.7356 178° South 241 277 15,000  Level Aus ATC (RADAR)
10:34PM -26.1939 152.7375 178° South 240 276 15,000  Level Aus ATC (RADAR)
10:35PM -26.2327 152.7388 178° South 239 275 15,000  Level Aus ATC (RADAR)
10:36PM -26.2945 152.7419 177° South 243 280 15,000  Level Aus ATC (RADAR)
10:37PM -26.3806 152.7469 177° South 249 287 15,000  Level Aus ATC (RADAR)
10:37PM -26.3978 152.7476 178° South 249 287 15,000  Level Aus ATC (RADAR)
10:38PM -26.4443 152.7480 180° South 249 287 15,000  Level Aus ATC (RADAR)
10:39PM -26.5133 152.7514 177° South 248 285 15,000  Level Aus ATC (RADAR)
10:40PM -26.5540 152.7534 177° South 249 287 15,000  Level Aus ATC (RADAR)
10:40PM -26.6182 152.7561 178° South 250 288 15,000 -720 Level Aus ATC (RADAR)
10:42PM -26.7103 152.7600 178° South 244 281 13,500 -1,260 Descending Aus ATC (RADAR)
10:42PM -26.7578 152.7656 174° South 258 297 12,600 -1,380 Descending Aus ATC (RADAR)
10:43PM -26.7757 152.7754 154° Southeast 272 313 12,300 -1,560 Descending Aus ATC (RADAR)
10:43PM -26.8195 152.8042 150° Southeast 304 350 11,300 -1,680 Descending Aus ATC (RADAR)
10:44PM -26.8804 152.8416 151° Southeast 292 336 10,000 -1,500 Descending Aus ATC (RADAR)
10:45PM -26.9200 152.8666 151° Southeast 276 318 9,200 -1,380 Descending Aus ATC (RADAR)
10:46PM -26.9905 152.9092 152° Southeast 258 297 7,700 -1,320 Descending Aus ATC (RADAR)
10:47PM -27.0894 152.9701 151° Southeast 249 287 5,700 -1,260 Descending Aus ATC (RADAR)
10:48PM -27.1085 152.9821 151° Southeast 238 274 5,300 -1,020 Descending Aus ATC (RADAR)
10:48PM -27.1390 153.0018 150° Southeast 215 247 4,800 -1,080 Descending Aus ATC (RADAR)
10:49PM -27.1867 153.0313 151° Southeast 207 238 3,700 -1,260 Descending Aus ATC (RADAR)
10:50PM -27.2103 153.0584 134° Southeast 200 230 3,000 -480 Descending Aus ATC (RADAR)
10:51PM -27.2513 153.1075 133° Southeast 197 227 3,000 -600 Level Aus ATC (RADAR)
10:52PM -27.3029 153.1654 135° Southeast 149 171 1,600 -1,020 Descending Aus ATC (RADAR)
10:53PM -27.3118 153.1683 164° South 138 159 1,300 -840 Descending Aus ATC (RADAR)
10:53PM -27.3305 153.1611 199° South 120 138 900 -600 Descending Aus ATC (RADAR)
10:54PM -27.3587 153.1445 208° Southwest 113 130 400 -540 Descending Aus ATC (RADAR)
10:55PM -27.3749 153.1339 210° Southwest 117 135 100 -540 Descending Aus ATC (RADAR)